Time;durP1;ratioP1;P1;durP2;ratioP2;P2;SDS_P1;SDS_P2;PMS_P1;PMS_P2;Temp;Humidity;BMP_temperature;BMP_pressure;BME280_temperature;BME280_humidity;BME280_pressure;Samples;Min_cycle;Max_cycle;Signal;HPM_P1;HPM_P2
2022/10/11 00:01:54;;;;;;;3.67;2.50;;;;;;;10.68;100.00;96241.34;6176565;23;20076;-64
2022/10/11 00:04:19;;;;;;;3.72;2.72;;;;;;;10.63;100.00;96244.38;6176076;23;20450;-64
2022/10/11 00:06:46;;;;;;;3.47;2.70;;;;;;;10.60;100.00;96237.56;6176521;23;20000;-64
2022/10/11 00:09:12;;;;;;;2.63;2.45;;;;;;;10.57;100.00;96244.88;6176389;23;20005;-64
2022/10/11 00:11:38;;;;;;;4.25;2.15;;;;;;;10.58;100.00;96238.66;6176265;22;20001;-55
2022/10/11 00:14:04;;;;;;;3.97;2.78;;;;;;;10.63;100.00;96246.16;6176315;23;20347;-61
2022/10/11 00:16:30;;;;;;;3.17;2.17;;;;;;;10.66;100.00;96245.91;6176452;23;20012;-61
2022/10/11 00:18:55;;;;;;;4.22;2.60;;;;;;;10.66;100.00;96244.13;6175462;23;20017;-62
2022/10/11 00:21:21;;;;;;;4.82;2.78;;;;;;;10.66;100.00;96245.91;6176151;23;20004;-62
2022/10/11 00:23:47;;;;;;;2.67;2.47;;;;;;;10.66;100.00;96245.91;6176459;23;20001;-61
2022/10/11 00:26:13;;;;;;;7.47;2.90;;;;;;;10.64;100.00;96239.94;6176236;23;20066;-61
2022/10/11 00:28:39;;;;;;;3.67;2.58;;;;;;;10.58;100.00;96250.03;6175928;23;20068;-69
2022/10/11 00:31:07;;;;;;;7.30;2.90;;;;;;;10.55;100.00;96252.06;6176183;23;20488;-65
2022/10/11 00:33:32;;;;;;;2.53;2.33;;;;;;;10.51;100.00;96251.50;6175614;23;20450;-64
2022/10/11 00:35:59;;;;;;;3.95;2.80;;;;;;;10.53;100.00;96251.38;6176041;23;20001;-65
2022/10/11 00:38:24;;;;;;;3.15;2.85;;;;;;;10.56;100.00;96248.47;6177549;23;20051;-64
2022/10/11 00:40:49;;;;;;;4.47;2.40;;;;;;;10.57;100.00;96253.63;6177743;23;20001;-64
2022/10/11 00:43:17;;;;;;;3.15;2.67;;;;;;;10.56;100.00;96251.97;6177601;23;20005;-64
2022/10/11 00:45:55;;;;;;;2.75;2.50;;;;;;;10.48;100.00;96246.47;6177292;23;19997;-64
2022/10/11 00:48:28;;;;;;;4.22;2.80;;;;;;;10.40;100.00;96241.00;6177742;23;20045;-66
2022/10/11 00:50:58;;;;;;;7.43;2.85;;;;;;;10.36;100.00;96239.59;6176081;23;20019;-69
2022/10/11 00:53:24;;;;;;;2.95;2.65;;;;;;;10.34;100.00;96242.34;6177165;23;19997;-62
2022/10/11 00:55:58;;;;;;;10.25;3.08;;;;;;;10.35;100.00;96238.75;6177931;23;20012;-61
2022/10/11 00:58:23;;;;;;;5.40;2.60;;;;;;;10.34;100.00;96247.59;6177375;23;20005;-61
2022/10/11 01:00:49;;;;;;;4.75;2.70;;;;;;;10.34;100.00;96244.97;6177424;23;20463;-62
2022/10/11 01:03:18;;;;;;;4.63;2.83;;;;;;;10.35;100.00;96245.81;6177084;23;20005;-61
2022/10/11 01:05:45;;;;;;;2.88;2.15;;;;;;;10.31;100.00;96243.44;6177375;23;20012;-61
2022/10/11 01:08:11;;;;;;;5.30;2.13;;;;;;;10.30;100.00;96241.78;6177279;23;20024;-64
2022/10/11 01:10:37;;;;;;;5.63;2.40;;;;;;;10.29;100.00;96239.25;6177790;23;19997;-56
2022/10/11 01:13:11;;;;;;;3.05;2.50;;;;;;;10.28;100.00;96237.59;6177338;23;20008;-69
2022/10/11 01:15:44;;;;;;;5.45;2.80;;;;;;;10.25;100.00;96243.91;6176632;23;20013;-69
2022/10/11 01:18:15;;;;;;;2.95;2.70;;;;;;;10.27;100.00;96242.00;6150502;22;20521;-69
2022/10/11 01:20:47;;;;;;;5.90;2.22;;;;;;;10.27;100.00;96236.72;6177252;23;20008;-69
2022/10/11 01:23:27;;;;;;;7.63;2.72;;;;;;;10.28;100.00;96248.97;6177147;23;20453;-69
2022/10/11 01:26:07;;;;;;;4.72;2.40;;;;;;;10.30;100.00;96249.66;6177163;23;20008;-69
2022/10/11 01:28:51;;;;;;;4.55;2.90;;;;;;;10.31;100.00;96248.69;6177476;23;20439;-65
2022/10/11 01:31:16;;;;;;;3.00;2.80;;;;;;;10.29;100.00;96244.50;6177351;23;20016;-69
2022/10/11 01:33:55;;;;;;;2.88;2.60;;;;;;;10.20;100.00;96240.84;6177296;23;20001;-69
2022/10/11 01:36:31;;;;;;;4.75;3.00;;;;;;;10.18;100.00;96226.97;6177086;23;20076;-69
2022/10/11 01:39:08;;;;;;;2.95;2.60;;;;;;;10.22;100.00;96232.84;6177720;23;20031;-69
2022/10/11 01:41:39;;;;;;;8.68;2.72;;;;;;;10.21;100.00;96218.81;6177239;23;20350;-69
2022/10/11 01:44:08;;;;;;;5.13;2.58;;;;;;;10.19;100.00;96231.28;6177133;23;19997;-69
2022/10/11 01:46:35;;;;;;;3.85;2.70;;;;;;;10.19;100.00;96215.50;6177174;23;20055;-69
2022/10/11 01:49:01;;;;;;;2.10;2.00;;;;;;;10.20;100.00;96208.44;6176256;23;20008;-59
2022/10/11 01:51:32;;;;;;;3.63;2.40;;;;;;;10.18;100.00;96221.72;6177696;23;19997;-58
2022/10/11 01:54:00;;;;;;;3.33;2.90;;;;;;;10.12;100.00;96219.59;6177899;23;20023;-58
2022/10/11 01:56:43;;;;;;;2.83;2.63;;;;;;;10.07;100.00;96217.34;6177517;23;19997;-58
2022/10/11 01:59:19;;;;;;;2.95;2.65;;;;;;;10.07;100.00;96216.53;6177325;23;20005;-58
2022/10/11 02:02:20;;;;;;;3.00;2.80;;;;;;;10.08;100.00;96220.81;6176966;23;20009;-58
2022/10/11 02:04:57;;;;;;;3.42;2.80;;;;;;;10.04;100.00;96212.34;6177766;23;20004;-61
2022/10/11 02:07:44;;;;;;;5.30;2.78;;;;;;;10.01;100.00;96210.78;6177660;23;20009;-58
2022/10/11 02:10:31;;;;;;;5.70;2.80;;;;;;;10.00;100.00;96206.47;6177083;23;20009;-69
2022/10/11 02:13:06;;;;;;;8.20;2.80;;;;;;;10.01;100.00;96208.16;6177317;23;20378;-69
2022/10/11 02:15:35;;;;;;;4.68;2.72;;;;;;;10.02;100.00;96204.56;6177155;23;20000;-70
2022/10/11 02:18:06;;;;;;;3.88;3.10;;;;;;;9.99;100.00;96202.19;6176711;23;20005;-70
2022/10/11 02:20:33;;;;;;;3.05;2.67;;;;;;;9.95;100.00;96200.78;6177206;23;20054;-69
2022/10/11 02:23:19;;;;;;;2.92;2.75;;;;;;;9.94;100.00;96198.25;6177753;22;20152;-69
2022/10/11 02:25:46;;;;;;;5.68;3.15;;;;;;;9.94;100.00;96195.63;6177021;23;20007;-61
2022/10/11 02:28:24;;;;;;;3.38;2.80;;;;;;;9.91;100.00;96196.72;6177017;23;20047;-67
2022/10/11 02:30:52;;;;;;;3.30;3.00;;;;;;;9.91;100.00;96196.72;6177135;23;20467;-68
2022/10/11 02:33:25;;;;;;;4.90;2.80;;;;;;;9.93;100.00;96202.69;6176950;23;20017;-68
2022/10/11 02:35:59;;;;;;;3.20;2.90;;;;;;;9.92;100.00;96195.75;6177236;23;20032;-68
2022/10/11 02:38:31;;;;;;;5.00;2.95;;;;;;;9.90;100.00;96202.94;6176907;23;20005;-68
2022/10/11 02:41:17;;;;;;;2.80;2.60;;;;;;;9.87;100.00;96203.19;6176779;23;20039;-68
2022/10/11 02:43:50;;;;;;;5.13;2.95;;;;;;;9.90;100.00;96202.94;6177251;23;20625;-68
2022/10/11 02:46:16;;;;;;;4.03;2.78;;;;;;;9.91;100.00;96201.13;6177192;23;20061;-67
2022/10/11 02:48:42;;;;;;;3.83;3.17;;;;;;;9.89;100.00;96198.66;6177041;23;20084;-61
2022/10/11 02:51:12;;;;;;;5.30;3.47;;;;;;;9.83;100.00;96199.13;6176990;23;20001;-61
2022/10/11 02:53:37;;;;;;;4.60;3.53;;;;;;;9.85;100.00;96194.59;6176670;23;20530;-62
2022/10/11 02:56:03;;;;;;;3.33;3.10;;;;;;;9.86;100.00;96197.09;6177343;23;20071;-61
2022/10/11 02:58:28;;;;;;;3.67;3.35;;;;;;;9.86;100.00;96191.00;6177072;23;20001;-61
2022/10/11 03:00:54;;;;;;;3.67;3.10;;;;;;;9.84;100.00;96198.19;6176712;23;20009;-61
2022/10/11 03:03:19;;;;;;;3.90;3.10;;;;;;;9.84;100.00;96201.66;6176556;23;20036;-68
2022/10/11 03:05:45;;;;;;;3.58;3.28;;;;;;;9.84;100.00;96195.56;6177477;23;20004;-56
2022/10/11 03:08:13;;;;;;;9.38;6.70;;;;;;;9.85;100.00;96199.84;6176191;23;20001;-65
2022/10/11 03:10:39;;;;;;;10.63;8.73;;;;;;;9.86;100.00;96206.78;6177250;23;19997;-65
2022/10/11 03:13:05;;;;;;;5.28;4.72;;;;;;;9.85;100.00;96199.84;6177356;23;20001;-65
2022/10/11 03:15:30;;;;;;;6.82;4.07;;;;;;;9.88;100.00;96205.69;6177366;23;20023;-67
2022/10/11 03:17:55;;;;;;;4.68;2.90;;;;;;;9.89;100.00;96207.34;6176883;23;20308;-66
2022/10/11 03:20:22;;;;;;;3.53;3.22;;;;;;;9.94;100.00;96204.34;6177251;23;20004;-67
2022/10/11 03:22:47;;;;;;;6.32;3.17;;;;;;;9.95;100.00;96203.41;6177133;23;20044;-63
2022/10/11 03:25:13;;;;;;;3.20;2.95;;;;;;;9.92;100.00;96201.03;6176706;23;20054;-65
2022/10/11 03:27:38;;;;;;;3.38;3.08;;;;;;;9.90;100.00;96200.31;6176790;23;20123;-66
2022/10/11 03:30:04;;;;;;;3.78;3.05;;;;;;;9.89;100.00;96204.72;6177307;23;19997;-65
2022/10/11 03:32:29;;;;;;;9.63;3.47;;;;;;;9.88;100.00;96204.88;6177002;23;20001;-66
2022/10/11 03:34:55;;;;;;;2.83;2.63;;;;;;;9.87;100.00;96195.31;6176761;23;20012;-65
2022/10/11 03:37:20;;;;;;;5.63;2.92;;;;;;;9.85;100.00;96198.06;6177074;22;20005;-66
2022/10/11 03:39:46;;;;;;;3.85;3.00;;;;;;;9.83;100.00;96196.50;6176930;23;20452;-65
2022/10/11 03:42:12;;;;;;;3.95;3.28;;;;;;;9.86;100.00;96196.28;6176831;23;19997;-63
2022/10/11 03:44:38;;;;;;;8.90;3.60;;;;;;;9.87;100.00;96203.19;6176792;23;20027;-59
2022/10/11 03:47:04;;;;;;;2.97;2.80;;;;;;;9.89;100.00;96196.84;6177219;23;20463;-66
2022/10/11 03:49:29;;;;;;;3.30;3.05;;;;;;;9.87;100.00;96203.19;6176721;23;20007;-66
2022/10/11 03:51:55;;;;;;;3.25;3.00;;;;;;;9.84;100.00;96196.38;6176756;23;20071;-66
2022/10/11 03:54:20;;;;;;;4.32;3.17;;;;;;;9.87;100.00;96206.66;6176282;23;20058;-66
2022/10/11 03:56:45;;;;;;;3.28;3.08;;;;;;;9.88;100.00;96202.25;6176863;23;20431;-66
2022/10/11 03:59:11;;;;;;;4.82;2.83;;;;;;;9.93;100.00;96205.31;6176613;23;20008;-67
2022/10/11 04:01:37;;;;;;;2.97;2.88;;;;;;;9.96;100.00;96201.63;6177106;23;20062;-60
2022/10/11 04:04:03;;;;;;;8.77;3.60;;;;;;;9.95;100.00;96198.13;6176514;23;20017;-57
2022/10/11 04:06:29;;;;;;;8.60;3.30;;;;;;;9.90;100.00;96202.94;6176519;23;19997;-63
2022/10/11 04:08:54;;;;;;;4.30;3.47;;;;;;;9.86;100.00;96204.16;6150368;23;20092;-63
2022/10/11 04:11:20;;;;;;;5.07;2.95;;;;;;;9.91;100.00;96201.13;6177236;23;20005;-62
2022/10/11 04:13:45;;;;;;;3.70;3.38;;;;;;;9.96;100.00;96206.88;6177974;23;20009;-62
2022/10/11 04:16:11;;;;;;;7.30;3.20;;;;;;;9.95;100.00;96210.47;6177795;23;20037;-66
2022/10/11 04:18:36;;;;;;;3.33;2.95;;;;;;;9.96;100.00;96209.50;6178088;23;20355;-62
2022/10/11 04:21:01;;;;;;;3.88;2.95;;;;;;;9.95;100.00;96211.28;6177887;23;20001;-67
2022/10/11 04:23:29;;;;;;;4.45;3.05;;;;;;;9.94;100.00;96209.63;6178090;23;20343;-65
2022/10/11 04:25:55;;;;;;;5.85;3.10;;;;;;;9.90;100.00;96218.72;6177949;23;20343;-66
2022/10/11 04:28:20;;;;;;;4.82;3.30;;;;;;;9.85;100.00;96216.47;6177866;23;19993;-66
2022/10/11 04:30:45;;;;;;;7.53;3.47;;;;;;;9.84;100.00;96214.78;6178163;23;20396;-65
2022/10/11 04:33:11;;;;;;;3.13;2.92;;;;;;;9.85;100.00;96211.19;6178070;23;20005;-65
2022/10/11 04:35:36;;;;;;;3.08;2.88;;;;;;;9.87;100.00;96208.47;6178043;22;20008;-65
2022/10/11 04:38:02;;;;;;;4.45;3.33;;;;;;;9.86;100.00;96210.25;6177780;23;20351;-66
2022/10/11 04:40:27;;;;;;;3.28;3.05;;;;;;;9.85;100.00;96200.69;6178099;23;20001;-68
2022/10/11 04:42:53;;;;;;;3.20;3.00;;;;;;;9.85;100.00;96205.13;6177935;23;20001;-66
2022/10/11 04:45:20;;;;;;;3.42;2.95;;;;;;;9.86;100.00;96212.06;6177713;23;20080;-66
2022/10/11 04:47:46;;;;;;;7.75;3.38;;;;;;;9.82;100.00;96215.88;6177629;23;20005;-66
2022/10/11 04:50:11;;;;;;;3.30;2.92;;;;;;;9.78;100.00;96210.03;6177785;23;20005;-66
2022/10/11 04:52:37;;;;;;;3.25;2.95;;;;;;;9.81;100.00;96212.41;6177703;23;20064;-66
2022/10/11 04:55:02;;;;;;;7.88;3.10;;;;;;;9.84;100.00;96206.91;6177955;23;20497;-65
2022/10/11 04:57:28;;;;;;;8.02;3.10;;;;;;;9.86;100.00;96217.31;6177753;23;20044;-65
2022/10/11 04:59:53;;;;;;;5.57;2.97;;;;;;;9.83;100.00;96210.50;6177875;23;19997;-65
2022/10/11 05:02:18;;;;;;;3.20;3.00;;;;;;;9.77;100.00;96223.28;6177918;23;20005;-68
2022/10/11 05:04:44;;;;;;;4.85;3.35;;;;;;;9.77;100.00;96212.78;6177881;23;20088;-68
2022/10/11 05:07:09;;;;;;;4.07;3.10;;;;;;;9.78;100.00;96217.06;6177783;23;20470;-68
2022/10/11 05:09:34;;;;;;;7.03;3.45;;;;;;;9.75;100.00;96212.91;6177759;23;20411;-68
2022/10/11 05:12:00;;;;;;;3.45;3.15;;;;;;;9.68;100.00;96206.47;6177916;23;20008;-68
2022/10/11 05:14:25;;;;;;;7.18;3.40;;;;;;;9.70;100.00;96212.44;6177907;23;20001;-68
2022/10/11 05:16:50;;;;;;;6.93;3.58;;;;;;;9.72;100.00;96215.78;6177904;23;20076;-68
2022/10/11 05:19:16;;;;;;;3.65;3.22;;;;;;;9.73;100.00;96207.78;6177324;23;20092;-57
2022/10/11 05:21:41;;;;;;;6.10;3.72;;;;;;;9.72;100.00;96210.50;6177836;23;19997;-56
2022/10/11 05:24:07;;;;;;;7.97;3.70;;;;;;;9.71;100.00;96217.59;6176727;23;20004;-56
2022/10/11 05:26:32;;;;;;;4.13;3.70;;;;;;;9.71;100.00;96208.84;6177528;23;20005;-58
2022/10/11 05:28:58;;;;;;;5.35;3.50;;;;;;;9.68;100.00;96211.72;6177446;23;20007;-57
2022/10/11 05:31:23;;;;;;;6.72;3.55;;;;;;;9.65;100.00;96209.34;6177496;23;20447;-56
2022/10/11 05:33:49;;;;;;;7.15;3.60;;;;;;;9.65;100.00;96215.44;6177503;23;19997;-57
2022/10/11 05:36:14;;;;;;;7.80;3.88;;;;;;;9.68;100.00;96219.63;6177770;23;20032;-65
2022/10/11 05:38:40;;;;;;;3.58;3.38;;;;;;;9.65;100.00;96219.88;6151428;22;20085;-56
2022/10/11 05:41:07;;;;;;;5.57;3.72;;;;;;;9.62;100.00;96218.34;6177788;23;20004;-63
2022/10/11 05:43:33;;;;;;;6.88;3.55;;;;;;;9.60;100.00;96222.84;6177111;23;20001;-63
2022/10/11 05:45:59;;;;;;;7.97;3.55;;;;;;;9.58;100.00;96219.50;6176900;23;20008;-63
2022/10/11 05:48:25;;;;;;;4.38;3.30;;;;;;;9.56;100.00;96221.44;6176584;23;19997;-63
2022/10/11 05:50:51;;;;;;;3.92;3.60;;;;;;;9.53;100.00;96217.28;6176915;23;20001;-64
2022/10/11 05:53:17;;;;;;;5.18;3.90;;;;;;;9.50;100.00;96232.44;6177703;23;20043;-63
2022/10/11 05:55:43;;;;;;;3.83;3.38;;;;;;;9.47;100.00;96230.88;6177326;22;20034;-70
2022/10/11 05:58:13;;;;;;;4.60;3.70;;;;;;;9.48;100.00;96235.19;6177482;23;20001;-69
2022/10/11 06:00:38;;;;;;;3.53;3.22;;;;;;;9.51;100.00;96234.09;6177651;23;20013;-57
2022/10/11 06:03:06;;;;;;;3.92;3.63;;;;;;;9.46;100.00;96242.34;6177270;22;20043;-56
2022/10/11 06:05:33;;;;;;;6.75;3.50;;;;;;;9.45;100.00;96241.53;6177447;23;20344;-54
2022/10/11 06:07:59;;;;;;;3.85;3.05;;;;;;;9.44;100.00;96245.13;6177241;23;19997;-55
2022/10/11 06:10:24;;;;;;;3.75;3.13;;;;;;;9.38;100.00;96245.59;6177049;23;20020;-53
2022/10/11 06:12:50;;;;;;;7.28;3.10;;;;;;;9.37;100.00;96246.53;6176882;23;20005;-56
2022/10/11 06:15:15;;;;;;;12.48;3.95;;;;;;;9.37;100.00;96245.72;6176282;23;20005;-71
2022/10/11 06:17:40;;;;;;;9.77;3.78;;;;;;;9.36;100.00;96250.13;6176501;23;20001;-59
2022/10/11 06:20:06;;;;;;;3.83;3.50;;;;;;;9.36;100.00;96252.75;6176922;23;20049;-65
2022/10/11 06:22:32;;;;;;;3.70;3.30;;;;;;;9.34;100.00;96259.09;6151359;23;20008;-64
2022/10/11 06:24:57;;;;;;;3.70;3.38;;;;;;;9.32;100.00;96261.84;6177282;23;20335;-65
2022/10/11 06:27:23;;;;;;;4.22;3.83;;;;;;;9.31;100.00;96260.16;6177486;23;20012;-65
2022/10/11 06:29:48;;;;;;;4.15;3.28;;;;;;;9.34;100.00;96264.34;6177687;23;19997;-65
2022/10/11 06:32:14;;;;;;;5.68;5.15;;;;;;;9.30;100.00;96258.50;6175890;23;20011;-64
2022/10/11 06:34:39;;;;;;;5.03;3.92;;;;;;;9.31;100.00;96262.78;6175994;23;19997;-61
2022/10/11 06:37:04;;;;;;;4.18;3.90;;;;;;;9.32;100.00;96265.31;6176266;23;20001;-69
2022/10/11 06:39:30;;;;;;;9.48;3.85;;;;;;;9.35;100.00;96264.22;6176848;23;20443;-55
2022/10/11 06:41:55;;;;;;;4.68;3.80;;;;;;;9.35;100.00;96268.66;6177384;23;20008;-57
2022/10/11 06:44:20;;;;;;;6.63;3.50;;;;;;;9.35;100.00;96266.84;6177144;23;20043;-57
2022/10/11 06:46:46;;;;;;;3.63;3.35;;;;;;;9.38;100.00;96276.28;6176598;23;20005;-56
2022/10/11 06:49:11;;;;;;;4.25;3.85;;;;;;;9.39;100.00;96277.97;6176784;23;20101;-55
2022/10/11 06:51:37;;;;;;;6.65;4.07;;;;;;;9.41;100.00;96284.78;6177428;23;19997;-56
2022/10/11 06:54:04;;;;;;;4.28;3.80;;;;;;;9.44;100.00;96294.19;6174924;23;20009;-62
2022/10/11 06:56:30;;;;;;;4.05;3.70;;;;;;;9.48;100.00;96286.94;6176252;23;19997;-60
2022/10/11 06:58:57;;;;;;;13.63;4.40;;;;;;;9.49;100.00;96294.66;6176470;22;20375;-68
2022/10/11 07:01:23;;;;;;;4.20;3.80;;;;;;;9.49;100.00;96292.03;6176917;23;20351;-67
2022/10/11 07:03:50;;;;;;;6.63;3.80;;;;;;;9.51;100.00;96297.19;6176642;23;20050;-67
2022/10/11 07:06:18;;;;;;;8.80;4.00;;;;;;;9.54;100.00;96294.31;6176221;23;20066;-69
2022/10/11 07:08:44;;;;;;;5.72;4.30;;;;;;;9.56;100.00;96298.50;6175887;23;20001;-67
2022/10/11 07:11:21;;;;;;;9.65;4.40;;;;;;;9.58;100.00;96298.38;6175172;23;20032;-69
2022/10/11 07:13:51;;;;;;;5.10;4.47;;;;;;;9.58;100.00;96295.75;6175690;23;20008;-62
2022/10/11 07:16:18;;;;;;;7.22;4.38;;;;;;;9.59;100.00;96297.41;6175341;23;20005;-61
2022/10/11 07:18:43;;;;;;;4.80;3.70;;;;;;;9.62;100.00;96298.97;6176064;23;20013;-59
2022/10/11 07:21:12;;;;;;;4.80;3.85;;;;;;;9.64;100.00;96300.53;6176133;23;20008;-59
2022/10/11 07:23:37;;;;;;;6.93;3.97;;;;;;;9.67;100.00;96304.69;6176458;23;20469;-58
2022/10/11 07:26:03;;;;;;;4.45;3.95;;;;;;;9.70;100.00;96296.56;6175324;23;19997;-59
2022/10/11 07:28:29;;;;;;;6.35;3.88;;;;;;;9.71;100.00;96303.50;6176200;23;20051;-58
2022/10/11 07:30:55;;;;;;;6.15;4.28;;;;;;;9.72;100.00;96307.78;6176348;23;19997;-59
2022/10/11 07:33:21;;;;;;;6.88;3.90;;;;;;;9.77;100.00;96296.91;6176821;23;20063;-64
2022/10/11 07:35:48;;;;;;;4.43;3.63;;;;;;;9.80;100.00;96301.94;6175597;23;20013;-69
2022/10/11 07:38:14;;;;;;;4.82;4.10;;;;;;;9.80;100.00;96299.31;6176091;23;20011;-69
2022/10/11 07:40:44;;;;;;;5.05;3.72;;;;;;;9.83;100.00;96299.06;6175978;23;20001;-69
2022/10/11 07:43:11;;;;;;;5.25;3.88;;;;;;;9.91;100.00;96294.03;6175956;23;19997;-70
2022/10/11 07:45:38;;;;;;;4.55;4.00;;;;;;;10.02;100.00;96296.63;6175626;23;20001;-69
2022/10/11 07:48:03;;;;;;;9.73;5.57;;;;;;;10.19;100.00;96291.81;6177535;23;20561;-69
2022/10/11 07:50:29;;;;;;;10.52;7.32;;;;;;;10.39;100.00;96294.59;6177553;23;20028;-69
2022/10/11 07:52:54;;;;;;;8.65;7.82;;;;;;;10.55;100.00;96292.41;6151327;22;20010;-61
2022/10/11 07:55:20;;;;;;;8.98;7.82;;;;;;;10.68;100.00;96289.59;6177216;23;20083;-64
2022/10/11 07:57:45;;;;;;;9.77;4.65;;;;;;;10.81;100.00;96289.41;6177094;23;20005;-64
2022/10/11 08:00:11;;;;;;;6.60;4.55;;;;;;;10.98;100.00;96293.25;6176987;23;20001;-64
2022/10/11 08:02:36;;;;;;;5.75;4.90;;;;;;;11.06;100.00;96281.25;6177350;23;20431;-64
2022/10/11 08:05:02;;;;;;;7.05;5.47;;;;;;;11.16;100.00;96290.00;6176908;23;20004;-64
2022/10/11 08:07:28;;;;;;;4.50;4.20;;;;;;;11.28;100.00;96283.72;6177444;23;19993;-64
2022/10/11 08:09:54;;;;;;;4.28;3.97;;;;;;;11.34;100.00;96279.69;6177569;23;20009;-65
2022/10/11 08:12:19;;;;;;;4.03;3.72;;;;;;;11.43;100.00;96286.81;6176601;23;20005;-68
2022/10/11 08:14:44;;;;;;;10.80;4.03;;;;;;;11.56;100.00;96283.09;6177193;23;20029;-63
2022/10/11 08:17:10;;;;;;;5.78;3.47;;;;;;;11.68;100.00;96278.56;6176992;23;20435;-63
2022/10/11 08:19:35;;;;;;;6.03;3.70;;;;;;;11.86;100.00;96278.75;6177216;23;20050;-63
2022/10/11 08:22:01;;;;;;;4.30;4.00;;;;;;;11.98;100.00;96282.94;6177009;23;20116;-64
2022/10/11 08:24:26;;;;;;;4.47;3.33;;;;;;;12.10;100.00;96291.59;6176810;23;20387;-64
2022/10/11 08:26:51;;;;;;;3.88;3.28;;;;;;;12.17;100.00;96289.25;6177000;23;20608;-63
2022/10/11 08:29:17;;;;;;;4.70;3.33;;;;;;;12.26;100.00;96291.06;6177503;23;20431;-64
2022/10/11 08:31:43;;;;;;;5.28;3.28;;;;;;;12.35;100.00;96280.66;6176952;23;19997;-61
2022/10/11 08:34:10;;;;;;;4.38;3.50;;;;;;;12.41;100.00;96291.50;6176895;23;20007;-61
2022/10/11 08:36:36;;;;;;;4.78;4.10;;;;;;;12.51;100.00;96288.00;6176554;23;20005;-61
2022/10/11 08:39:02;;;;;;;4.05;3.65;;;;;;;12.56;100.00;96289.28;6177286;22;20020;-61
2022/10/11 08:41:46;;;;;;;4.20;3.83;;;;;;;12.63;100.00;96284.28;6176958;23;20032;-61
2022/10/11 08:44:36;;;;;;;4.50;3.50;;;;;;;12.68;100.00;96286.47;6176754;23;20009;-61
2022/10/11 08:47:08;;;;;;;3.55;3.25;;;;;;;12.72;100.00;96277.31;6150879;22;20347;-61
2022/10/11 08:49:34;;;;;;;18.67;2.92;;;;;;;12.69;100.00;96278.41;6176841;23;20016;-61
2022/10/11 08:52:11;;;;;;;3.72;3.28;;;;;;;12.79;100.00;96277.56;6177194;23;20001;-63
2022/10/11 08:54:48;;;;;;;3.20;2.90;;;;;;;12.79;100.00;96281.06;6176223;23;20004;-71
2022/10/11 08:57:18;;;;;;;4.60;2.85;;;;;;;12.85;100.00;96283.13;6176458;23;20020;-71
2022/10/11 08:59:46;;;;;;;4.85;2.80;;;;;;;12.89;100.00;96273.94;6177007;23;20470;-71
2022/10/11 09:02:17;;;;;;;3.13;2.83;;;;;;;13.04;100.00;96273.50;6176161;23;20074;-70
2022/10/11 09:04:49;;;;;;;2.88;2.67;;;;;;;13.14;100.00;96279.56;6176794;23;19997;-70
2022/10/11 09:07:56;;;;;;;2.90;2.50;;;;;;;13.20;100.00;96275.53;6177368;23;20028;-70
2022/10/11 09:10:52;;;;;;;2.90;2.60;;;;;;;13.18;100.00;96278.31;6155767;23;20005;-64
2022/10/11 09:13:41;;;;;;;3.13;2.92;;;;;;;13.28;100.00;96277.44;6177075;23;20004;-69
2022/10/11 09:16:12;;;;;;;6.35;3.40;;;;;;;13.30;100.00;96281.63;6175900;22;20005;-70
2022/10/11 09:19:05;;;;;;;3.30;3.00;;;;;;;13.34;100.00;96287.44;6176693;23;20452;-70
2022/10/11 09:22:04;;;;;;;3.35;3.05;;;;;;;13.44;100.00;96288.28;6177329;23;20001;-68
2022/10/11 09:24:33;;;;;;;4.78;3.35;;;;;;;13.45;100.00;96283.81;6150521;22;20005;-69
2022/10/11 09:27:27;;;;;;;5.47;3.50;;;;;;;13.55;100.00;96289.91;6177247;23;20025;-69
2022/10/11 09:30:04;;;;;;;4.72;3.33;;;;;;;13.67;100.00;96287.06;6176426;23;20490;-61
2022/10/11 09:32:34;;;;;;;7.18;3.17;;;;;;;13.78;100.00;96288.69;6177119;23;20487;-69
2022/10/11 09:35:10;;;;;;;2.80;2.60;;;;;;;13.84;100.00;96285.47;6176889;23;20001;-69
2022/10/11 09:38:06;;;;;;;3.67;2.88;;;;;;;13.91;100.00;96281.22;6176433;23;20005;-70
2022/10/11 09:40:57;;;;;;;3.47;2.63;;;;;;;14.03;100.00;96282.69;6176946;23;20032;-69
2022/10/11 09:43:23;;;;;;;4.32;2.88;;;;;;;14.28;100.00;96277.66;6176164;23;20803;-70
2022/10/11 09:45:49;;;;;;;3.05;2.85;;;;;;;14.40;100.00;96282.72;6175772;23;20004;-69
2022/10/11 09:48:40;;;;;;;4.95;3.20;;;;;;;14.56;100.00;96282.88;6175524;23;20494;-69
2022/10/11 09:51:12;;;;;;;2.50;2.40;;;;;;;14.63;100.00;96279.59;6175638;23;20004;-70
2022/10/11 09:54:03;;;;;;;3.05;2.85;;;;;;;14.79;98.85;96274.47;6175967;23;20004;-69
2022/10/11 09:56:31;;;;;;;4.32;2.60;;;;;;;14.73;96.58;96286.50;6176107;23;20454;-69
2022/10/11 09:59:19;;;;;;;3.13;2.80;;;;;;;14.75;98.02;96287.19;6177196;22;20005;-70
2022/10/11 10:01:44;;;;;;;4.47;2.45;;;;;;;14.80;99.24;96277.94;6176345;23;21041;-69
2022/10/11 10:04:13;;;;;;;5.05;2.88;;;;;;;14.88;96.43;96273.53;6175169;23;20041;-70
2022/10/11 10:06:39;;;;;;;2.67;2.53;;;;;;;14.93;92.58;96272.25;6174770;22;20012;-59
2022/10/11 10:09:19;;;;;;;2.65;2.53;;;;;;;14.91;91.09;96275.06;6174813;23;20381;-71
2022/10/11 10:11:44;;;;;;;3.08;2.55;;;;;;;14.96;92.87;96279.91;6175470;23;20004;-64
2022/10/11 10:14:20;;;;;;;3.50;2.65;;;;;;;15.03;91.29;96278.28;6175030;23;20032;-65
2022/10/11 10:16:46;;;;;;;2.75;2.40;;;;;;;15.09;92.86;96277.66;6175225;22;20039;-64
2022/10/11 10:19:24;;;;;;;2.85;2.65;;;;;;;15.18;91.43;96270.56;6176187;23;20467;-64
2022/10/11 10:21:52;;;;;;;2.67;2.47;;;;;;;15.21;91.22;96269.44;6176632;22;20539;-65
2022/10/11 10:24:33;;;;;;;3.25;2.30;;;;;;;15.26;89.50;96288.38;6176330;23;20005;-64
2022/10/11 10:27:20;;;;;;;7.60;2.78;;;;;;;15.38;87.97;96279.16;6175297;23;20021;-70
2022/10/11 10:30:07;;;;;;;3.10;2.90;;;;;;;15.34;89.84;96277.78;6176088;23;20032;-66
2022/10/11 10:33:03;;;;;;;3.45;2.60;;;;;;;15.40;89.13;96281.66;6176963;23;19993;-64
2022/10/11 10:35:47;;;;;;;4.40;2.80;;;;;;;15.43;87.47;96279.50;6146454;23;20021;-65
2022/10/11 10:38:38;;;;;;;3.10;2.88;;;;;;;15.48;87.49;96273.75;6172959;23;20504;-66
2022/10/11 10:41:08;;;;;;;3.28;2.97;;;;;;;15.64;89.67;96274.78;6174217;23;20050;-65
2022/10/11 10:43:36;;;;;;;5.93;2.60;;;;;;;15.74;89.14;96276.31;6170197;23;20488;-66
2022/10/11 10:46:17;;;;;;;8.85;2.95;;;;;;;15.90;87.51;96270.25;6173430;23;20059;-57
2022/10/11 10:48:52;;;;;;;8.63;2.60;;;;;;;16.11;87.25;96276.16;6148085;23;20008;-63
2022/10/11 10:51:31;;;;;;;4.32;2.70;;;;;;;16.19;88.43;96273.50;6176389;23;20009;-63
2022/10/11 10:54:06;;;;;;;3.45;3.05;;;;;;;16.29;87.58;96266.22;6176609;23;19997;-63
2022/10/11 10:56:51;;;;;;;7.00;2.88;;;;;;;16.48;85.51;96269.56;6175633;23;20032;-63
2022/10/11 10:59:31;;;;;;;3.70;2.33;;;;;;;16.61;85.21;96275.22;6176495;23;19993;-64
2022/10/11 11:02:19;;;;;;;3.05;2.85;;;;;;;16.76;85.69;96256.75;6176696;23;20001;-63
2022/10/11 11:04:56;;;;;;;5.90;2.67;;;;;;;17.01;83.76;96262.09;6174833;23;20386;-62
2022/10/11 11:07:27;;;;;;;3.00;2.45;;;;;;;17.17;83.85;96266.56;6174559;22;20083;-69
2022/10/11 11:10:35;;;;;;;3.38;2.35;;;;;;;17.38;81.08;96261.69;6175877;23;20001;-62
2022/10/11 11:13:27;;;;;;;2.83;2.58;;;;;;;17.58;81.22;96257.63;6175694;23;20020;-62
2022/10/11 11:16:30;;;;;;;4.18;2.38;;;;;;;17.70;79.90;96250.09;6175576;23;20039;-62
2022/10/11 11:19:08;;;;;;;3.00;2.63;;;;;;;17.80;76.78;96249.88;6174880;23;20017;-62
2022/10/11 11:22:15;;;;;;;2.92;2.30;;;;;;;17.85;75.78;96236.88;6173977;23;20008;-62
2022/10/11 11:25:10;;;;;;;4.15;2.88;;;;;;;17.73;76.16;96238.28;6174073;22;20024;-62
2022/10/11 11:27:59;;;;;;;2.95;2.65;;;;;;;17.70;73.71;96227.97;6174881;23;20025;-68
2022/10/11 11:30:39;;;;;;;3.28;3.03;;;;;;;17.58;78.34;96230.19;6174866;23;20005;-69
2022/10/11 11:33:29;;;;;;;6.97;2.80;;;;;;;17.50;80.14;96231.06;6175365;23;20001;-69
2022/10/11 11:36:01;;;;;;;4.25;2.42;;;;;;;17.65;79.10;96220.50;6175130;23;20002;-69
2022/10/11 11:38:41;;;;;;;4.80;2.90;;;;;;;17.69;80.88;96219.16;6175423;23;20006;-69
2022/10/11 11:41:20;;;;;;;5.07;3.53;;;;;;;17.68;80.35;96213.97;6175853;23;20604;-69
2022/10/11 11:44:15;;;;;;;2.40;2.20;;;;;;;17.51;77.29;96215.91;6174824;23;20510;-57
2022/10/11 11:46:51;;;;;;;2.50;2.30;;;;;;;17.52;77.62;96212.22;6175070;23;20001;-68